DLH242 EDDS-LICC
Flight info
| Callsign | DLH242 |
|---|---|
| Flight time | N/A |
| Altitude | 37000 |
| Route | ROTWE7H ROTWE Y126 TUBLO N850 NATOR DCT TRA DCT RIPUS DCT GERSA DCT SOSON DCT ODINA DCT VAKOR DCT PELEN Q789 UXUTA |
| Aircraft | A320/M-SDE3FGHIRWY/LB1 |
Departure
| Time | 2026-05-05 08:19 |
|---|---|
| Airport | Stuttgart Airport (EDDS) |
Arrival
| Time | N/A |
|---|---|
| Airport | Catania-Fontanarossa Airport (LICC) |
| Time | Latitude | Longitude | Altitude | Speed | Heading |
|---|---|---|---|---|---|
| 2026-05-05 08:19 | 48.70572 | 9.31799 | 3778 ft | 195 kts | 70° |
| 2026-05-05 08:19 | 48.71040 | 9.33921 | 3862 ft | 231 kts | 76° |
| 2026-05-05 08:19 | 48.71034 | 9.36423 | 4327 ft | 246 kts | 107° |
| 2026-05-05 08:20 | 48.70134 | 9.38616 | 5153 ft | 250 kts | 139° |
| 2026-05-05 08:20 | 48.68646 | 9.40002 | 6026 ft | 254 kts | 159° |
| 2026-05-05 08:20 | 48.66921 | 9.40573 | 6899 ft | 257 kts | 178° |
| 2026-05-05 08:20 | 48.65141 | 9.40254 | 7773 ft | 261 kts | 197° |
| 2026-05-05 08:21 | 48.63500 | 9.39057 | 8625 ft | 265 kts | 216° |
| 2026-05-05 08:21 | 48.62159 | 9.37056 | 9213 ft | 283 kts | 235° |
| 2026-05-05 08:21 | 48.61346 | 9.34299 | 9860 ft | 294 kts | 257° |
| 2026-05-05 08:21 | 48.61245 | 9.31204 | 10649 ft | 300 kts | 277° |
| 2026-05-05 08:22 | 48.61574 | 9.27961 | 11033 ft | 322 kts | 275° |
| 2026-05-05 08:22 | 48.61544 | 9.24469 | 11287 ft | 344 kts | 259° |
| 2026-05-05 08:22 | 48.60963 | 9.20897 | 11826 ft | 354 kts | 253° |
| 2026-05-05 08:22 | 48.60315 | 9.17288 | 12578 ft | 358 kts | 253° |
| 2026-05-05 08:23 | 48.59659 | 9.13639 | 13344 ft | 361 kts | 253° |
| 2026-05-05 08:23 | 48.59001 | 9.09961 | 14087 ft | 364 kts | 253° |
| 2026-05-05 08:23 | 48.58339 | 9.06257 | 14818 ft | 367 kts | 253° |
| 2026-05-05 08:23 | 48.57673 | 9.02521 | 15524 ft | 370 kts | 253° |
| 2026-05-05 08:24 | 48.56999 | 8.98747 | 16211 ft | 373 kts | 253° |
| 2026-05-05 08:24 | 48.56318 | 8.94950 | 16894 ft | 376 kts | 253° |
| 2026-05-05 08:24 | 48.55628 | 8.91127 | 17552 ft | 379 kts | 252° |
| 2026-05-05 08:24 | 48.54932 | 8.87269 | 18202 ft | 382 kts | 252° |
| 2026-05-05 08:25 | 48.54239 | 8.83429 | 18816 ft | 386 kts | 252° |
| 2026-05-05 08:25 | 48.53532 | 8.79514 | 19456 ft | 388 kts | 252° |
| 2026-05-05 08:25 | 48.52813 | 8.75570 | 20094 ft | 391 kts | 252° |
| 2026-05-05 08:25 | 48.52087 | 8.71609 | 20707 ft | 393 kts | 252° |
| 2026-05-05 08:26 | 48.51359 | 8.67627 | 21293 ft | 396 kts | 252° |
| 2026-05-05 08:26 | 48.50624 | 8.63612 | 21858 ft | 398 kts | 252° |
| 2026-05-05 08:26 | 48.49887 | 8.59581 | 22409 ft | 400 kts | 252° |
| 2026-05-05 08:26 | 48.49149 | 8.55536 | 22922 ft | 402 kts | 252° |
| 2026-05-05 08:27 | 48.48242 | 8.51546 | 23417 ft | 402 kts | 244° |
| 2026-05-05 08:27 | 48.46862 | 8.47882 | 23921 ft | 402 kts | 233° |
| 2026-05-05 08:27 | 48.45017 | 8.44647 | 24422 ft | 403 kts | 223° |
| 2026-05-05 08:27 | 48.42813 | 8.42021 | 24878 ft | 405 kts | 212° |
| 2026-05-05 08:28 | 48.40354 | 8.40047 | 25303 ft | 408 kts | 204° |
| 2026-05-05 08:28 | 48.37662 | 8.38668 | 25746 ft | 411 kts | 195° |
| 2026-05-05 08:28 | 48.34856 | 8.37758 | 26178 ft | 413 kts | 193° |
| 2026-05-05 08:28 | 48.32039 | 8.36865 | 26575 ft | 415 kts | 193° |
| 2026-05-05 08:29 | 48.29202 | 8.35964 | 26960 ft | 417 kts | 193° |
| 2026-05-05 08:29 | 48.26359 | 8.35063 | 27332 ft | 419 kts | 193° |
| 2026-05-05 08:29 | 48.23496 | 8.34156 | 27698 ft | 421 kts | 193° |
| 2026-05-05 08:30 | 48.17699 | 8.32624 | 28380 ft | 426 kts | 185° |
| 2026-05-05 08:30 | 48.14732 | 8.32711 | 28699 ft | 430 kts | 176° |
| 2026-05-05 08:30 | 48.11767 | 8.33396 | 29021 ft | 432 kts | 173° |
| 2026-05-05 08:30 | 48.08801 | 8.34131 | 29316 ft | 433 kts | 173° |
| 2026-05-05 08:31 | 48.05819 | 8.34857 | 29591 ft | 434 kts | 173° |
| 2026-05-05 08:31 | 48.02828 | 8.35574 | 29882 ft | 435 kts | 173° |
| 2026-05-05 08:31 | 47.99845 | 8.36283 | 30252 ft | 434 kts | 173° |
| 2026-05-05 08:31 | 47.96874 | 8.36992 | 30636 ft | 432 kts | 173° |
| 2026-05-05 08:32 | 47.93915 | 8.37702 | 31017 ft | 430 kts | 173° |
| 2026-05-05 08:32 | 47.90967 | 8.38412 | 31373 ft | 428 kts | 173° |
| 2026-05-05 08:32 | 47.88033 | 8.39119 | 31741 ft | 426 kts | 173° |
| 2026-05-05 08:32 | 47.85107 | 8.39824 | 32101 ft | 425 kts | 173° |
| 2026-05-05 08:33 | 47.82194 | 8.40524 | 32466 ft | 423 kts | 173° |
| 2026-05-05 08:33 | 47.79290 | 8.41216 | 32814 ft | 421 kts | 173° |
| 2026-05-05 08:33 | 47.76437 | 8.41896 | 33138 ft | 420 kts | 174° |
| 2026-05-05 08:33 | 47.73551 | 8.42588 | 33460 ft | 419 kts | 174° |
| 2026-05-05 08:34 | 47.70677 | 8.43279 | 33787 ft | 418 kts | 174° |
| 2026-05-05 08:34 | 47.67812 | 8.43941 | 34116 ft | 416 kts | 175° |
| 2026-05-05 08:34 | 47.64950 | 8.44468 | 34440 ft | 414 kts | 176° |
| 2026-05-05 08:34 | 47.62088 | 8.44886 | 34721 ft | 414 kts | 177° |
| 2026-05-05 08:35 | 47.59219 | 8.45249 | 34957 ft | 415 kts | 178° |
| 2026-05-05 08:35 | 47.56338 | 8.45604 | 35205 ft | 415 kts | 178° |
| 2026-05-05 08:35 | 47.53460 | 8.45981 | 35446 ft | 416 kts | 177° |
| 2026-05-05 08:35 | 47.50571 | 8.46382 | 35664 ft | 417 kts | 177° |
| 2026-05-05 08:36 | 47.47682 | 8.46798 | 35886 ft | 417 kts | 176° |
| 2026-05-05 08:36 | 47.44792 | 8.47226 | 36075 ft | 418 kts | 176° |
| 2026-05-05 08:36 | 47.41894 | 8.47663 | 36276 ft | 419 kts | 176° |
| 2026-05-05 08:36 | 47.38989 | 8.48097 | 36469 ft | 420 kts | 177° |
| 2026-05-05 08:37 | 47.36083 | 8.48527 | 36658 ft | 420 kts | 176° |
| 2026-05-05 08:37 | 47.33174 | 8.48954 | 36857 ft | 420 kts | 177° |
| 2026-05-05 08:37 | 47.30267 | 8.49374 | 36912 ft | 419 kts | 177° |
| 2026-05-05 08:38 | 47.24482 | 8.50215 | 36928 ft | 416 kts | 177° |
| 2026-05-05 08:38 | 47.18757 | 8.51050 | 36930 ft | 416 kts | 177° |
| 2026-05-05 08:39 | 47.13005 | 8.51895 | 36909 ft | 416 kts | 176° |
| 2026-05-05 08:39 | 47.07239 | 8.52728 | 36928 ft | 415 kts | 177° |
| 2026-05-05 08:40 | 47.01482 | 8.53551 | 36921 ft | 416 kts | 176° |
| 2026-05-05 08:40 | 46.95721 | 8.54385 | 36919 ft | 416 kts | 176° |
| 2026-05-05 08:41 | 46.89957 | 8.55217 | 36922 ft | 416 kts | 176° |
| 2026-05-05 08:41 | 46.84192 | 8.56043 | 36922 ft | 416 kts | 176° |
| 2026-05-05 08:42 | 46.78427 | 8.56866 | 36929 ft | 417 kts | 176° |
| 2026-05-05 08:42 | 46.72657 | 8.57695 | 36931 ft | 416 kts | 176° |
| 2026-05-05 08:43 | 46.66895 | 8.58524 | 36932 ft | 416 kts | 176° |
| 2026-05-05 08:43 | 46.61128 | 8.59348 | 36938 ft | 416 kts | 176° |
| 2026-05-05 08:44 | 46.55355 | 8.60163 | 36945 ft | 417 kts | 176° |
| 2026-05-05 08:44 | 46.50554 | 8.60840 | 36951 ft | 417 kts | 176° |
| 2026-05-05 08:45 | 46.44777 | 8.61657 | 36962 ft | 417 kts | 176° |
| 2026-05-05 08:45 | 46.38067 | 8.62617 | 36970 ft | 417 kts | 176° |
| 2026-05-05 08:46 | 46.33224 | 8.63301 | 36978 ft | 417 kts | 176° |
| 2026-05-05 08:46 | 46.27440 | 8.64106 | 36989 ft | 417 kts | 176° |
| 2026-05-05 08:47 | 46.21655 | 8.64914 | 37001 ft | 418 kts | 176° |
| 2026-05-05 08:47 | 46.15911 | 8.65726 | 37010 ft | 418 kts | 176° |
| 2026-05-05 08:48 | 46.10201 | 8.67280 | 37014 ft | 421 kts | 162° |
| 2026-05-05 08:48 | 46.04989 | 8.71189 | 37014 ft | 425 kts | 152° |
| 2026-05-05 08:49 | 45.99918 | 8.75589 | 37018 ft | 426 kts | 152° |
| 2026-05-05 08:49 | 45.94837 | 8.79981 | 37014 ft | 427 kts | 152° |
| 2026-05-05 08:50 | 45.89738 | 8.84361 | 37014 ft | 427 kts | 152° |
| 2026-05-05 08:50 | 45.84629 | 8.88732 | 37014 ft | 428 kts | 152° |
| 2026-05-05 08:51 | 45.79518 | 8.93111 | 37011 ft | 428 kts | 152° |
| 2026-05-05 08:51 | 45.74402 | 8.97481 | 37011 ft | 428 kts | 152° |
| 2026-05-05 08:52 | 45.69278 | 9.01857 | 37008 ft | 429 kts | 153° |
| 2026-05-05 08:52 | 45.64145 | 9.06227 | 37007 ft | 429 kts | 153° |
| 2026-05-05 08:53 | 45.59016 | 9.10583 | 37006 ft | 429 kts | 153° |
| 2026-05-05 08:53 | 45.53873 | 9.14936 | 37001 ft | 430 kts | 153° |
| 2026-05-05 08:54 | 45.48731 | 9.19294 | 36996 ft | 430 kts | 153° |
| 2026-05-05 08:54 | 45.43583 | 9.23637 | 36994 ft | 430 kts | 153° |
| 2026-05-05 08:55 | 45.38460 | 9.27942 | 36994 ft | 430 kts | 153° |
| 2026-05-05 08:55 | 45.33276 | 9.32303 | 36991 ft | 430 kts | 153° |
| 2026-05-05 08:56 | 45.28149 | 9.36605 | 36992 ft | 431 kts | 153° |
| 2026-05-05 08:56 | 45.22983 | 9.40922 | 36989 ft | 431 kts | 153° |
| 2026-05-05 08:57 | 45.17806 | 9.45239 | 36989 ft | 431 kts | 153° |
| 2026-05-05 08:57 | 45.12635 | 9.49541 | 36986 ft | 432 kts | 153° |
| 2026-05-05 08:58 | 45.07452 | 9.53850 | 36982 ft | 432 kts | 153° |
| 2026-05-05 08:58 | 45.02268 | 9.58157 | 36975 ft | 432 kts | 153° |
| 2026-05-05 08:59 | 44.97071 | 9.62457 | 36974 ft | 433 kts | 153° |
| 2026-05-05 08:59 | 44.91869 | 9.66747 | 36968 ft | 433 kts | 153° |
| 2026-05-05 09:00 | 44.86664 | 9.71050 | 36961 ft | 434 kts | 153° |
| 2026-05-05 09:00 | 44.81434 | 9.75356 | 36963 ft | 435 kts | 154° |
| 2026-05-05 09:01 | 44.76236 | 9.79620 | 36969 ft | 436 kts | 154° |
| 2026-05-05 09:01 | 44.70952 | 9.83936 | 36969 ft | 437 kts | 154° |
| 2026-05-05 09:02 | 44.65695 | 9.88230 | 36973 ft | 437 kts | 154° |
| 2026-05-05 09:02 | 44.60435 | 9.92526 | 36973 ft | 437 kts | 154° |
| 2026-05-05 09:03 | 44.55197 | 9.96799 | 36971 ft | 438 kts | 154° |
| 2026-05-05 09:03 | 44.49916 | 10.01093 | 36978 ft | 439 kts | 154° |
| 2026-05-05 09:04 | 44.44625 | 10.05373 | 36980 ft | 440 kts | 154° |
| 2026-05-05 09:04 | 44.39312 | 10.09666 | 36984 ft | 440 kts | 154° |
| 2026-05-05 09:05 | 44.34002 | 10.13955 | 36989 ft | 441 kts | 154° |
| 2026-05-05 09:05 | 44.28673 | 10.18234 | 36996 ft | 442 kts | 154° |
| 2026-05-05 09:06 | 44.23347 | 10.22515 | 36997 ft | 442 kts | 154° |
| 2026-05-05 09:06 | 44.18020 | 10.26786 | 36998 ft | 442 kts | 154° |
| 2026-05-05 09:07 | 44.12688 | 10.31048 | 37003 ft | 442 kts | 154° |
| 2026-05-05 09:07 | 44.07343 | 10.35317 | 37004 ft | 443 kts | 155° |
| 2026-05-05 09:08 | 44.01986 | 10.39586 | 37000 ft | 445 kts | 155° |
| 2026-05-05 09:08 | 43.96599 | 10.43875 | 37001 ft | 447 kts | 155° |
| 2026-05-05 09:09 | 43.91196 | 10.48162 | 37002 ft | 448 kts | 155° |
| 2026-05-05 09:09 | 43.85782 | 10.52448 | 37005 ft | 449 kts | 155° |
| 2026-05-05 09:10 | 43.80350 | 10.56743 | 37006 ft | 449 kts | 155° |
| 2026-05-05 09:10 | 43.74923 | 10.61027 | 37001 ft | 449 kts | 155° |
| 2026-05-05 09:11 | 43.69482 | 10.65312 | 37002 ft | 450 kts | 155° |
| 2026-05-05 09:11 | 43.64031 | 10.69584 | 37004 ft | 450 kts | 155° |
| 2026-05-05 09:12 | 43.58583 | 10.73843 | 37003 ft | 450 kts | 155° |
| 2026-05-05 09:12 | 43.53127 | 10.78109 | 37006 ft | 451 kts | 155° |
| 2026-05-05 09:13 | 43.47675 | 10.82368 | 37007 ft | 451 kts | 155° |
| 2026-05-05 09:13 | 43.42209 | 10.86616 | 37006 ft | 451 kts | 155° |
| 2026-05-05 09:14 | 43.36743 | 10.90866 | 37008 ft | 451 kts | 155° |
| 2026-05-05 09:14 | 43.31305 | 10.95088 | 37007 ft | 452 kts | 155° |
| 2026-05-05 09:15 | 43.25834 | 10.99328 | 37006 ft | 452 kts | 155° |
| 2026-05-05 09:15 | 43.20358 | 11.03553 | 37008 ft | 452 kts | 155° |
| 2026-05-05 09:16 | 43.14879 | 11.07771 | 37012 ft | 452 kts | 155° |
| 2026-05-05 09:16 | 43.09405 | 11.11975 | 37017 ft | 451 kts | 156° |
| 2026-05-05 09:17 | 43.03917 | 11.16182 | 37022 ft | 452 kts | 156° |
| 2026-05-05 09:17 | 42.98426 | 11.20389 | 37024 ft | 452 kts | 156° |
| 2026-05-05 09:18 | 42.92934 | 11.24592 | 37027 ft | 453 kts | 156° |
| 2026-05-05 09:18 | 42.87422 | 11.28797 | 37034 ft | 454 kts | 156° |
| 2026-05-05 09:19 | 42.81908 | 11.32993 | 37032 ft | 454 kts | 156° |
| 2026-05-05 09:19 | 42.76393 | 11.37174 | 37033 ft | 454 kts | 156° |
| 2026-05-05 09:20 | 42.70870 | 11.41357 | 37036 ft | 454 kts | 156° |
| 2026-05-05 09:20 | 42.65348 | 11.45540 | 37034 ft | 454 kts | 156° |
| 2026-05-05 09:21 | 42.59816 | 11.49716 | 37037 ft | 455 kts | 156° |
| 2026-05-05 09:21 | 42.54321 | 11.53857 | 37039 ft | 455 kts | 156° |
| 2026-05-05 09:22 | 42.48779 | 11.58029 | 37047 ft | 456 kts | 156° |
| 2026-05-05 09:22 | 42.43223 | 11.62187 | 37039 ft | 456 kts | 156° |
| 2026-05-05 09:23 | 42.37669 | 11.66347 | 37047 ft | 457 kts | 156° |
| 2026-05-05 09:23 | 42.32098 | 11.70513 | 37054 ft | 457 kts | 156° |
| 2026-05-05 09:24 | 42.26516 | 11.74672 | 37058 ft | 458 kts | 157° |
| 2026-05-05 09:24 | 42.20931 | 11.78817 | 37061 ft | 458 kts | 157° |
| 2026-05-05 09:25 | 42.15346 | 11.82959 | 37064 ft | 458 kts | 157° |
| 2026-05-05 09:25 | 42.09759 | 11.87100 | 37066 ft | 458 kts | 157° |
| 2026-05-05 09:26 | 42.04178 | 11.91236 | 37069 ft | 458 kts | 157° |
| 2026-05-05 09:26 | 41.98630 | 11.95337 | 37072 ft | 458 kts | 157° |
| 2026-05-05 09:27 | 41.93030 | 11.99466 | 37077 ft | 459 kts | 157° |
| 2026-05-05 09:27 | 41.87427 | 12.03580 | 37079 ft | 459 kts | 157° |
| 2026-05-05 09:28 | 41.81823 | 12.07676 | 37082 ft | 459 kts | 157° |
| 2026-05-05 09:28 | 41.76220 | 12.11782 | 37082 ft | 459 kts | 157° |
| 2026-05-05 09:29 | 41.70612 | 12.15888 | 37082 ft | 460 kts | 157° |
| 2026-05-05 09:29 | 41.65906 | 12.19314 | 37085 ft | 459 kts | 157° |
| 2026-05-05 09:30 | 41.60333 | 12.23367 | 37095 ft | 459 kts | 157° |
| 2026-05-05 09:30 | 41.54722 | 12.27448 | 37100 ft | 459 kts | 157° |
| 2026-05-05 09:31 | 41.49107 | 12.31524 | 37101 ft | 460 kts | 157° |
| 2026-05-05 09:31 | 41.43483 | 12.35600 | 37105 ft | 460 kts | 157° |
| 2026-05-05 09:32 | 41.37864 | 12.39654 | 37109 ft | 459 kts | 157° |
| 2026-05-05 09:32 | 41.32235 | 12.43700 | 37101 ft | 460 kts | 157° |
| 2026-05-05 09:33 | 41.26612 | 12.47744 | 37109 ft | 460 kts | 157° |
| 2026-05-05 09:33 | 41.20985 | 12.51785 | 37111 ft | 460 kts | 156° |
| 2026-05-05 09:34 | 41.15358 | 12.55820 | 37120 ft | 460 kts | 156° |
| 2026-05-05 09:34 | 41.09726 | 12.59848 | 37126 ft | 460 kts | 156° |
| 2026-05-05 09:35 | 41.04090 | 12.63869 | 37130 ft | 460 kts | 156° |
| 2026-05-05 09:35 | 40.95633 | 12.69880 | 37132 ft | 460 kts | 156° |
| 2026-05-05 09:36 | 40.89999 | 12.73885 | 37133 ft | 460 kts | 156° |
| 2026-05-05 09:36 | 40.84355 | 12.77893 | 37132 ft | 460 kts | 156° |
| 2026-05-05 09:37 | 40.78715 | 12.81883 | 37132 ft | 460 kts | 156° |
| 2026-05-05 09:37 | 40.73067 | 12.85865 | 37135 ft | 460 kts | 156° |
| 2026-05-05 09:38 | 40.67416 | 12.89849 | 37134 ft | 460 kts | 156° |
| 2026-05-05 09:38 | 40.61769 | 12.93823 | 37137 ft | 460 kts | 156° |
| 2026-05-05 09:39 | 40.56114 | 12.97798 | 37140 ft | 461 kts | 156° |
| 2026-05-05 09:39 | 40.50446 | 13.01762 | 37145 ft | 461 kts | 156° |
| 2026-05-05 09:40 | 40.44823 | 13.05697 | 37150 ft | 461 kts | 156° |
| 2026-05-05 09:40 | 40.39157 | 13.09654 | 37150 ft | 461 kts | 156° |
| 2026-05-05 09:41 | 40.33497 | 13.13598 | 37147 ft | 461 kts | 156° |
| 2026-05-05 09:41 | 40.27830 | 13.17532 | 37150 ft | 461 kts | 156° |
| 2026-05-05 09:42 | 40.22167 | 13.21459 | 37151 ft | 460 kts | 156° |
| 2026-05-05 09:42 | 40.16510 | 13.25377 | 37150 ft | 460 kts | 156° |
| 2026-05-05 09:43 | 40.10849 | 13.29291 | 37147 ft | 460 kts | 156° |
| 2026-05-05 09:43 | 40.05194 | 13.33193 | 37147 ft | 460 kts | 156° |